createdAt,value
2023-01-18T00:02:10.143Z,10.60
2023-01-18T00:04:40.729Z,10.48
2023-01-18T00:07:11.218Z,11.38
2023-01-18T00:09:42.028Z,12.40
2023-01-18T00:12:12.319Z,13.82
2023-01-18T00:14:42.566Z,11.90
2023-01-18T00:17:13.097Z,13.27
2023-01-18T00:19:44.206Z,11.95
2023-01-18T00:22:14.770Z,12.98
2023-01-18T00:24:45.328Z,13.70
2023-01-18T00:27:22.801Z,12.50
2023-01-18T00:29:53.540Z,12.27
2023-01-18T00:32:24.449Z,13.02
2023-01-18T00:34:56.815Z,11.93
2023-01-18T00:37:31.055Z,12.65
2023-01-18T00:40:01.960Z,12.25
2023-01-18T00:42:53.934Z,12.77
2023-01-18T00:45:24.560Z,12.80
2023-01-18T00:47:54.754Z,12.13
2023-01-18T00:50:25.835Z,11.50
2023-01-18T00:52:58.388Z,10.18
2023-01-18T00:55:31.790Z,11.25
2023-01-18T00:58:02.637Z,10.82
2023-01-18T01:00:34.336Z,10.20
2023-01-18T01:03:05.115Z,10.15
2023-01-18T01:05:54.123Z,10.27
2023-01-18T01:08:24.608Z,10.70
2023-01-18T01:11:09.089Z,10.05
2023-01-18T01:13:58.332Z,10.80
2023-01-18T01:16:47.121Z,10.63
2023-01-18T01:19:36.442Z,10.25
2023-01-18T01:22:25.912Z,11.18
2023-01-18T01:25:14.426Z,11.85
2023-01-18T01:27:44.701Z,11.52
2023-01-18T01:30:15.358Z,11.98
2023-01-18T01:32:46.192Z,11.88
2023-01-18T01:35:16.525Z,12.38
2023-01-18T01:37:47.847Z,11.68
2023-01-18T01:40:19.086Z,10.15
2023-01-18T01:42:50.256Z,10.65
2023-01-18T01:45:22.174Z,12.13
2023-01-18T01:47:53.746Z,11.90
2023-01-18T01:50:37.108Z,11.30
2023-01-18T01:53:08.473Z,12.63
2023-01-18T01:55:39.606Z,13.55
2023-01-18T01:58:14.153Z,13.85
2023-01-18T02:00:45.771Z,14.98
2023-01-18T02:03:20.855Z,13.85
2023-01-18T02:06:03.803Z,13.43
2023-01-18T02:08:34.424Z,13.93
2023-01-18T02:11:04.934Z,12.77
2023-01-18T02:13:35.280Z,12.40
2023-01-18T02:16:17.133Z,13.30
2023-01-18T02:18:58.270Z,12.77
2023-01-18T02:21:36.512Z,15.32
2023-01-18T02:25:03.865Z,13.73
2023-01-18T02:27:59.831Z,14.00
2023-01-18T02:30:44.036Z,12.75
2023-01-18T02:33:28.034Z,10.27
2023-01-18T02:35:59.351Z,11.35
2023-01-18T02:38:38.079Z,12.18
2023-01-18T02:41:17.847Z,10.82
2023-01-18T02:44:09.639Z,10.07
2023-01-18T02:46:41.527Z,12.25
2023-01-18T02:49:21.903Z,11.50
2023-01-18T02:52:05.936Z,12.20
2023-01-18T02:54:38.878Z,10.68
2023-01-18T02:57:14.112Z,10.93
2023-01-18T02:59:51.916Z,11.07
2023-01-18T03:02:25.475Z,9.88
2023-01-18T03:04:57.635Z,10.13
2023-01-18T03:07:47.785Z,11.20
2023-01-18T03:10:18.714Z,11.20
2023-01-18T03:13:00.404Z,11.35
2023-01-18T03:15:52.257Z,10.27
2023-01-18T03:19:07.583Z,12.93
2023-01-18T03:21:49.214Z,10.38
2023-01-18T03:24:20.599Z,9.13
2023-01-18T03:26:55.353Z,8.63
2023-01-18T03:29:43.941Z,8.48
2023-01-18T03:32:34.941Z,7.40
2023-01-18T03:35:17.828Z,6.93
2023-01-18T03:37:49.065Z,6.93
2023-01-18T03:40:31.134Z,6.57
2023-01-18T03:43:07.680Z,6.82
2023-01-18T03:45:45.584Z,6.13
2023-01-18T03:48:16.890Z,5.50
2023-01-18T03:51:01.359Z,7.75
2023-01-18T03:53:50.075Z,5.85
2023-01-18T03:56:50.802Z,6.55
2023-01-18T03:59:22.618Z,5.57
2023-01-18T04:01:53.791Z,5.75
2023-01-18T04:04:24.981Z,6.15
2023-01-18T04:06:55.432Z,5.47
2023-01-18T04:09:27.320Z,5.00
2023-01-18T04:11:58.132Z,5.43
2023-01-18T04:14:28.955Z,4.75
2023-01-18T04:16:59.704Z,5.05
2023-01-18T04:19:32.725Z,5.28
2023-01-18T04:22:03.166Z,4.53
2023-01-18T04:24:36.378Z,4.45
2023-01-18T04:27:07.024Z,3.90
2023-01-18T04:29:37.847Z,7.10
2023-01-18T04:32:08.449Z,4.75
2023-01-18T04:34:41.285Z,4.38
2023-01-18T04:37:11.710Z,3.47
2023-01-18T04:39:43.157Z,4.47
2023-01-18T04:42:16.079Z,5.03
2023-01-18T04:44:47.130Z,5.10
2023-01-18T04:47:17.719Z,4.68
2023-01-18T04:49:48.861Z,4.68
2023-01-18T04:52:19.655Z,5.20
2023-01-18T04:54:50.161Z,4.65
2023-01-18T04:57:20.841Z,4.65
2023-01-18T04:59:51.699Z,4.55
2023-01-18T05:02:22.336Z,3.90
2023-01-18T05:04:53.521Z,4.60
2023-01-18T05:07:31.520Z,3.53
2023-01-18T05:10:05.608Z,3.47
2023-01-18T05:12:35.946Z,3.85
2023-01-18T05:15:06.950Z,2.92
2023-01-18T05:17:37.686Z,3.67
2023-01-18T05:20:16.830Z,4.45
2023-01-18T05:22:47.089Z,5.05
2023-01-18T05:25:17.937Z,4.88
2023-01-18T05:27:48.428Z,7.55
2023-01-18T05:30:19.189Z,5.93
2023-01-18T05:32:49.517Z,5.75
2023-01-18T05:35:20.000Z,6.35
2023-01-18T05:37:50.988Z,4.90
2023-01-18T05:40:21.837Z,6.53
2023-01-18T05:42:52.617Z,6.63
2023-01-18T05:45:22.926Z,6.15
2023-01-18T05:47:53.663Z,4.45
2023-01-18T05:50:24.257Z,5.00
2023-01-18T05:52:55.061Z,3.80
2023-01-18T05:55:26.070Z,4.00
2023-01-18T05:57:56.396Z,4.65
2023-01-18T06:00:27.390Z,4.47
2023-01-18T06:02:58.669Z,5.20
2023-01-18T06:05:30.115Z,4.22
2023-01-18T06:08:00.916Z,3.42
2023-01-18T06:10:31.232Z,2.97
2023-01-18T06:13:01.751Z,3.10
2023-01-18T06:15:32.743Z,2.60
2023-01-18T06:18:04.238Z,6.75
2023-01-18T06:20:34.914Z,2.92
2023-01-18T06:23:05.653Z,2.17
2023-01-18T06:25:36.198Z,2.85
2023-01-18T06:28:07.323Z,2.17
2023-01-18T06:30:37.925Z,2.20
2023-01-18T06:33:09.431Z,1.95
2023-01-18T06:35:39.890Z,5.45
2023-01-18T06:38:10.684Z,2.08
2023-01-18T06:40:41.581Z,3.20
2023-01-18T06:43:14.966Z,2.67
2023-01-18T06:45:45.640Z,2.55
2023-01-18T06:48:15.959Z,3.35
2023-01-18T06:50:46.529Z,3.70
2023-01-18T06:53:17.609Z,3.80
2023-01-18T06:55:55.899Z,2.58
2023-01-18T06:58:27.825Z,2.55
2023-01-18T07:01:00.387Z,2.60
2023-01-18T07:03:31.907Z,4.80
2023-01-18T07:06:03.675Z,2.67
2023-01-18T07:08:35.284Z,2.10
2023-01-18T07:11:10.794Z,2.30
2023-01-18T07:13:41.378Z,2.38
2023-01-18T07:16:18.954Z,2.20
2023-01-18T07:18:51.038Z,2.97
2023-01-18T07:21:23.830Z,3.30
2023-01-18T07:23:54.124Z,2.88
2023-01-18T07:26:25.419Z,2.65
2023-01-18T07:28:57.108Z,2.60
2023-01-18T07:31:28.546Z,2.03
2023-01-18T07:33:59.420Z,2.50
2023-01-18T07:36:30.236Z,2.22
2023-01-18T07:39:04.018Z,2.70
2023-01-18T07:41:35.120Z,2.40
2023-01-18T07:44:06.625Z,2.72
2023-01-18T07:46:36.974Z,2.47
2023-01-18T07:49:07.884Z,5.07
2023-01-18T07:51:39.173Z,3.55
2023-01-18T07:54:09.887Z,3.17
2023-01-18T07:56:41.230Z,3.05
2023-01-18T07:59:17.011Z,3.55
2023-01-18T08:01:48.181Z,3.10
2023-01-18T08:04:19.164Z,2.70
2023-01-18T08:06:49.821Z,3.10
2023-01-18T08:09:23.287Z,2.40
2023-01-18T08:11:53.877Z,2.35
2023-01-18T08:14:24.427Z,2.20
2023-01-18T08:16:57.850Z,2.67
2023-01-18T08:19:28.638Z,2.85
2023-01-18T08:21:59.411Z,2.85
2023-01-18T08:24:29.778Z,3.30
2023-01-18T08:27:02.739Z,2.60
2023-01-18T08:29:33.861Z,3.88
2023-01-18T08:32:04.198Z,3.58
2023-01-18T08:34:34.505Z,3.15
2023-01-18T08:37:05.230Z,4.47
2023-01-18T08:39:35.979Z,2.80
2023-01-18T08:42:07.626Z,3.17
2023-01-18T08:44:39.427Z,3.20
2023-01-18T08:47:11.327Z,3.08
2023-01-18T08:49:41.643Z,3.20
2023-01-18T08:52:12.436Z,3.75
2023-01-18T08:54:42.833Z,4.50
2023-01-18T08:57:13.688Z,5.15
2023-01-18T08:59:44.358Z,4.78
2023-01-18T09:02:14.886Z,4.07
2023-01-18T09:04:49.495Z,5.32
2023-01-18T09:07:19.762Z,12.68
2023-01-18T09:09:50.489Z,10.27
2023-01-18T09:12:21.701Z,10.98
2023-01-18T09:14:52.147Z,28.98
2023-01-18T09:17:22.929Z,25.33
2023-01-18T09:19:56.401Z,12.73
2023-01-18T09:22:28.333Z,17.10
2023-01-18T09:24:58.867Z,17.55
2023-01-18T09:27:29.456Z,9.68
2023-01-18T09:30:01.135Z,18.73
2023-01-18T09:32:32.281Z,7.10
2023-01-18T09:35:03.019Z,15.93
2023-01-18T09:37:35.456Z,7.90
2023-01-18T09:40:06.144Z,22.48
2023-01-18T09:42:45.472Z,15.57
2023-01-18T09:45:36.771Z,12.35
2023-01-18T09:48:08.916Z,12.45
2023-01-18T09:50:46.600Z,13.10
2023-01-18T09:53:35.111Z,12.63
2023-01-18T09:56:32.663Z,22.80
2023-01-18T09:59:15.655Z,25.48
2023-01-18T10:01:46.910Z,14.60
2023-01-18T10:04:38.031Z,19.42
2023-01-18T10:07:13.901Z,11.20
2023-01-18T10:09:49.417Z,22.90
2023-01-18T10:12:27.128Z,14.63
2023-01-18T10:15:18.344Z,11.80
2023-01-18T10:17:50.187Z,13.23
2023-01-18T10:20:36.264Z,16.10
2023-01-18T10:23:26.936Z,21.73
2023-01-18T10:26:05.001Z,20.75
2023-01-18T10:28:40.613Z,19.33
2023-01-18T10:31:35.334Z,21.75
2023-01-18T10:34:20.229Z,17.65
2023-01-18T10:37:02.479Z,16.60
2023-01-18T10:39:36.962Z,25.52
2023-01-18T10:42:32.725Z,21.30
2023-01-18T10:45:05.211Z,14.48
2023-01-18T10:47:35.814Z,14.35
2023-01-18T10:50:23.476Z,18.40
2023-01-18T10:52:54.465Z,15.95
2023-01-18T10:55:25.475Z,14.30
2023-01-18T10:57:56.920Z,14.25
2023-01-18T11:00:37.228Z,15.50
2023-01-18T11:03:09.988Z,12.43
2023-01-18T11:05:45.836Z,15.15
2023-01-18T11:08:23.880Z,14.40
2023-01-18T11:11:07.413Z,12.05
2023-01-18T11:13:48.209Z,13.20
2023-01-18T11:16:23.784Z,13.02
2023-01-18T11:19:20.847Z,12.13
2023-01-18T11:21:52.186Z,9.70
2023-01-18T11:24:32.712Z,10.65
2023-01-18T11:27:07.996Z,13.77
2023-01-18T11:29:46.031Z,12.57
2023-01-18T11:32:28.365Z,15.55
2023-01-18T11:35:00.888Z,8.45
2023-01-18T11:37:40.801Z,10.88
2023-01-18T11:40:21.440Z,13.55
2023-01-18T11:42:52.595Z,11.20
2023-01-18T11:45:47.106Z,15.73
2023-01-18T11:48:27.253Z,13.00
2023-01-18T11:51:02.569Z,9.52
2023-01-18T11:54:04.077Z,14.63
2023-01-18T11:56:41.690Z,7.60
2023-01-18T11:59:20.388Z,7.85
2023-01-18T12:02:36.394Z,9.02
2023-01-18T12:05:31.034Z,12.85
2023-01-18T12:08:19.261Z,10.88
2023-01-18T12:11:24.438Z,7.72
2023-01-18T12:14:15.162Z,8.73
2023-01-18T12:16:50.918Z,6.32
2023-01-18T12:19:52.281Z,6.32
2023-01-18T12:23:13.028Z,5.32
2023-01-18T12:25:44.053Z,23.67
2023-01-18T12:28:35.316Z,11.35
2023-01-18T12:31:21.208Z,6.10
2023-01-18T12:34:09.242Z,3.17
2023-01-18T12:37:14.312Z,3.80
2023-01-18T12:39:54.672Z,2.95
2023-01-18T12:42:33.921Z,4.10
2023-01-18T12:45:18.310Z,4.97
2023-01-18T12:48:17.513Z,4.13
2023-01-18T12:50:50.854Z,3.78
2023-01-18T12:53:40.613Z,3.40
2023-01-18T12:56:17.815Z,5.22
2023-01-18T12:58:58.046Z,4.63
2023-01-18T13:01:31.768Z,3.05
2023-01-18T13:04:21.580Z,3.45
2023-01-18T13:06:57.692Z,3.08
2023-01-18T13:09:35.035Z,4.07
2023-01-18T13:12:06.779Z,4.00
2023-01-18T13:14:40.335Z,3.72
2023-01-18T13:17:32.341Z,4.13
2023-01-18T13:20:20.037Z,4.35
2023-01-18T13:23:27.100Z,3.65
2023-01-18T13:26:15.783Z,3.67
2023-01-18T13:28:47.270Z,3.88
2023-01-18T13:31:18.482Z,3.40
2023-01-18T13:33:58.374Z,3.72
2023-01-18T13:36:28.627Z,3.65
2023-01-18T13:39:04.247Z,3.45
2023-01-18T13:41:34.708Z,3.90
2023-01-18T13:44:27.196Z,3.83
2023-01-18T13:47:02.599Z,4.40
2023-01-18T13:49:38.460Z,4.47
2023-01-18T13:52:36.341Z,5.07
2023-01-18T13:55:29.348Z,5.25
2023-01-18T13:58:00.254Z,4.78
2023-01-18T14:00:50.678Z,4.68
2023-01-18T14:03:28.518Z,4.57
2023-01-18T14:05:59.643Z,4.40
2023-01-18T14:08:33.535Z,4.20
2023-01-18T14:11:12.133Z,4.47
2023-01-18T14:13:49.301Z,4.75
2023-01-18T14:16:23.324Z,5.05
2023-01-18T14:18:56.975Z,4.28
2023-01-18T14:21:58.891Z,4.20
2023-01-18T14:24:35.141Z,5.03
2023-01-18T14:27:07.213Z,5.32
2023-01-18T14:30:03.917Z,4.57
2023-01-18T14:32:50.795Z,4.53
2023-01-18T14:35:25.953Z,4.65
2023-01-18T14:38:19.132Z,4.22
2023-01-18T14:40:58.300Z,3.88
2023-01-18T14:43:37.037Z,3.75
2023-01-18T14:46:13.120Z,4.13
2023-01-18T14:48:55.501Z,3.80
2023-01-18T14:51:29.914Z,3.80
2023-01-18T14:54:03.846Z,3.80
2023-01-18T14:56:45.302Z,3.70
2023-01-18T14:59:25.839Z,3.58
2023-01-18T15:02:02.212Z,3.45
2023-01-18T15:04:39.756Z,3.90
2023-01-18T15:07:17.931Z,4.10
2023-01-18T15:09:49.061Z,4.65
2023-01-18T15:12:23.133Z,4.32
2023-01-18T15:14:56.538Z,4.68
2023-01-18T15:17:28.394Z,4.03
2023-01-18T15:20:06.896Z,4.40
2023-01-18T15:22:39.694Z,4.45
2023-01-18T15:25:20.615Z,4.03
2023-01-18T15:27:53.188Z,3.97
2023-01-18T15:30:25.762Z,4.30
2023-01-18T15:32:59.162Z,4.15
2023-01-18T15:35:31.772Z,4.38
2023-01-18T15:38:05.883Z,4.65
2023-01-18T15:40:36.809Z,4.18
2023-01-18T15:43:29.465Z,4.32
2023-01-18T15:46:00.202Z,4.30
2023-01-18T15:48:37.903Z,4.90
2023-01-18T15:51:10.044Z,4.28
2023-01-18T15:53:56.233Z,4.40
2023-01-18T15:56:30.618Z,4.60
2023-01-18T15:59:02.531Z,4.35
2023-01-18T16:01:37.556Z,3.92
2023-01-18T16:04:12.776Z,4.28
2023-01-18T16:06:42.923Z,3.92
2023-01-18T16:09:14.631Z,4.18
2023-01-18T16:11:53.575Z,4.03
2023-01-18T16:14:32.336Z,5.45
2023-01-18T16:17:15.948Z,4.28
2023-01-18T16:19:49.618Z,4.28
2023-01-18T16:22:28.794Z,5.50
2023-01-18T16:25:02.297Z,4.30
2023-01-18T16:27:33.446Z,5.45
2023-01-18T16:30:16.004Z,4.47
2023-01-18T16:32:47.346Z,4.00
2023-01-18T16:35:26.490Z,3.95
2023-01-18T16:37:58.740Z,4.07
2023-01-18T16:40:30.017Z,4.22
2023-01-18T16:43:04.124Z,4.03
2023-01-18T16:45:38.679Z,3.55
2023-01-18T16:48:11.309Z,3.70
2023-01-18T16:50:42.271Z,4.13
2023-01-18T16:53:15.927Z,4.30
2023-01-18T16:55:49.130Z,3.63
2023-01-18T16:58:22.133Z,4.15
2023-01-18T17:01:06.981Z,3.90
2023-01-18T17:03:41.161Z,4.63
2023-01-18T17:06:20.184Z,3.50
2023-01-18T17:08:51.735Z,3.25
2023-01-18T17:11:21.823Z,3.53
2023-01-18T17:13:52.277Z,3.83
2023-01-18T17:16:24.109Z,3.55
2023-01-18T17:18:54.575Z,3.97
2023-01-18T17:21:24.895Z,4.03
2023-01-18T17:23:55.304Z,4.25
2023-01-18T17:26:25.542Z,3.83
2023-01-18T17:28:55.887Z,3.80
2023-01-18T17:31:26.258Z,3.90
2023-01-18T17:33:57.131Z,4.15
2023-01-18T17:36:27.544Z,4.00
2023-01-18T17:38:58.299Z,4.10
2023-01-18T17:41:29.568Z,4.45
2023-01-18T17:43:59.847Z,4.20
2023-01-18T17:46:30.617Z,3.58
2023-01-18T17:49:01.791Z,4.05
2023-01-18T17:51:32.723Z,4.30
2023-01-18T17:54:10.296Z,3.90
2023-01-18T17:56:43.791Z,3.75
2023-01-18T17:59:14.862Z,3.60
2023-01-18T18:01:45.532Z,4.45
2023-01-18T18:04:16.081Z,4.30
2023-01-18T18:06:54.162Z,4.22
2023-01-18T18:09:25.653Z,3.90
2023-01-18T18:11:55.948Z,4.13
2023-01-18T18:14:26.542Z,3.83
2023-01-18T18:16:57.026Z,3.90
2023-01-18T18:19:27.845Z,3.90
2023-01-18T18:21:58.410Z,4.35
2023-01-18T18:24:29.236Z,4.03
2023-01-18T18:27:00.989Z,4.10
2023-01-18T18:29:32.850Z,4.38
2023-01-18T18:32:06.187Z,4.47
2023-01-18T18:34:37.355Z,3.72
2023-01-18T18:37:07.910Z,3.80
2023-01-18T18:39:38.278Z,3.63
2023-01-18T18:42:08.477Z,3.25
2023-01-18T18:44:39.565Z,3.53
2023-01-18T18:47:10.992Z,3.90
2023-01-18T18:49:41.618Z,4.22
2023-01-18T18:52:11.911Z,4.95
2023-01-18T18:54:42.516Z,3.40
2023-01-18T18:57:13.506Z,3.30
2023-01-18T18:59:44.532Z,3.45
2023-01-18T19:02:16.322Z,3.17
2023-01-18T19:04:46.639Z,3.90
2023-01-18T19:07:18.288Z,4.22
2023-01-18T19:09:48.596Z,3.67
2023-01-18T19:12:18.828Z,4.30
2023-01-18T19:14:51.911Z,5.15
2023-01-18T19:17:30.405Z,4.80
2023-01-18T19:20:01.636Z,4.13
2023-01-18T19:22:34.732Z,3.63
2023-01-18T19:25:05.121Z,2.92
2023-01-18T19:27:35.367Z,3.70
2023-01-18T19:30:11.651Z,2.92
2023-01-18T19:32:42.471Z,3.38
2023-01-18T19:35:14.121Z,3.40
2023-01-18T19:37:44.743Z,3.92
2023-01-18T19:40:16.775Z,3.95
2023-01-18T19:42:47.962Z,4.68
2023-01-18T19:45:27.245Z,4.68
2023-01-18T19:48:00.529Z,4.20
2023-01-18T19:50:32.244Z,4.13
2023-01-18T19:53:04.297Z,4.35
2023-01-18T19:55:37.307Z,4.40
2023-01-18T19:58:07.857Z,4.07
2023-01-18T20:00:38.175Z,3.95
2023-01-18T20:03:08.941Z,3.80
2023-01-18T20:05:44.351Z,4.57
2023-01-18T20:08:14.736Z,4.68
2023-01-18T20:10:45.809Z,4.38
2023-01-18T20:13:15.914Z,4.57
2023-01-18T20:15:51.634Z,4.75
2023-01-18T20:18:22.209Z,4.28
2023-01-18T20:20:52.522Z,4.20
2023-01-18T20:23:23.565Z,4.18
2023-01-18T20:25:54.406Z,4.40
2023-01-18T20:28:26.371Z,4.75
2023-01-18T20:30:57.308Z,4.55
2023-01-18T20:33:27.714Z,5.07
2023-01-18T20:35:58.294Z,4.90
2023-01-18T20:38:28.821Z,4.95
2023-01-18T20:40:59.323Z,5.40
2023-01-18T20:43:29.801Z,6.25
2023-01-18T20:46:07.020Z,5.63
2023-01-18T20:48:38.763Z,5.80
2023-01-18T20:51:09.617Z,6.13
2023-01-18T20:53:39.972Z,5.75
2023-01-18T20:56:28.263Z,5.55
2023-01-18T20:58:59.462Z,6.45
2023-01-18T21:01:35.535Z,6.40
2023-01-18T21:04:06.285Z,6.70
2023-01-18T21:06:36.876Z,6.60
2023-01-18T21:09:08.010Z,6.55
2023-01-18T21:11:38.817Z,6.78
2023-01-18T21:14:09.699Z,7.32
2023-01-18T21:16:40.580Z,6.30
2023-01-18T21:19:13.800Z,6.53
2023-01-18T21:21:48.271Z,6.38
2023-01-18T21:24:18.772Z,5.70
2023-01-18T21:26:49.224Z,5.07
2023-01-18T21:29:19.877Z,5.70
2023-01-18T21:31:53.315Z,5.60
2023-01-18T21:34:23.679Z,5.40
2023-01-18T21:36:54.014Z,5.80
2023-01-18T21:39:27.514Z,5.30
2023-01-18T21:42:16.331Z,6.05
2023-01-18T21:45:04.813Z,5.88
2023-01-18T21:47:35.355Z,5.28
2023-01-18T21:50:24.900Z,6.10
2023-01-18T21:53:15.673Z,5.78
2023-01-18T21:55:49.608Z,5.72
2023-01-18T21:58:38.291Z,5.32
2023-01-18T22:01:18.201Z,6.10
2023-01-18T22:04:07.411Z,6.00
2023-01-18T22:06:38.335Z,5.45
2023-01-18T22:09:09.210Z,4.55
2023-01-18T22:11:39.787Z,5.45
2023-01-18T22:14:11.561Z,4.93
2023-01-18T22:16:42.595Z,4.80
2023-01-18T22:19:14.100Z,3.95
2023-01-18T22:21:44.803Z,4.10
2023-01-18T22:24:36.198Z,7.00
2023-01-18T22:27:09.368Z,8.07
2023-01-18T22:29:42.754Z,6.40
2023-01-18T22:32:18.208Z,7.00
2023-01-18T22:34:56.370Z,5.97
2023-01-18T22:37:53.149Z,5.53
2023-01-18T22:40:43.651Z,5.00
2023-01-18T22:43:15.155Z,4.55
2023-01-18T22:45:45.959Z,5.18
2023-01-18T22:48:16.211Z,8.52
2023-01-18T22:50:53.963Z,9.40
2023-01-18T22:53:26.167Z,7.82
2023-01-18T22:55:56.795Z,6.68
2023-01-18T22:58:27.297Z,7.57
2023-01-18T23:00:57.945Z,6.65
2023-01-18T23:03:30.881Z,11.57
2023-01-18T23:06:02.198Z,8.57
2023-01-18T23:08:44.925Z,21.58
2023-01-18T23:11:18.857Z,6.60
2023-01-18T23:14:10.386Z,7.45
2023-01-18T23:16:59.579Z,6.25
2023-01-18T23:19:31.168Z,6.28
2023-01-18T23:22:07.739Z,6.00
2023-01-18T23:24:39.099Z,7.55
2023-01-18T23:27:13.608Z,6.78
2023-01-18T23:29:43.895Z,6.85
2023-01-18T23:32:14.135Z,6.22
2023-01-18T23:34:47.504Z,6.57
2023-01-18T23:37:20.170Z,6.60
2023-01-18T23:40:09.671Z,6.25
2023-01-18T23:42:58.548Z,6.13
2023-01-18T23:45:47.266Z,6.70
2023-01-18T23:48:38.638Z,7.95
2023-01-18T23:51:30.262Z,8.25
2023-01-18T23:54:19.490Z,8.20
2023-01-18T23:56:50.129Z,7.90
2023-01-18T23:59:29.245Z,7.97
